Time;durP1;ratioP1;P1;durP2;ratioP2;P2;SDS_P1;SDS_P2;PMS_P1;PMS_P2;Temp;Humidity;BMP_temperature;BMP_pressure;BME280_temperature;BME280_humidity;BME280_pressure;Samples;Min_cycle;Max_cycle;Signal;HPM_P1;HPM_P2
2022/11/06 00:01:25;;;;;;;13.77;8.30;;;6.00;99.90;;;;;;5099404;28;20032;-74
2022/11/06 00:03:52;;;;;;;13.30;8.60;;;6.00;99.90;;;;;;5100357;28;20031;-74
2022/11/06 00:09:05;;;;;;;12.15;7.32;;;6.00;99.90;;;;;;5102838;28;20051;-74
2022/11/06 00:11:31;;;;;;;18.02;8.45;;;6.00;99.90;;;;;;5100255;28;20028;-77
2022/11/06 00:13:59;;;;;;;14.80;7.55;;;6.10;99.90;;;;;;5095008;28;20498;-75
2022/11/06 00:16:25;;;;;;;13.63;7.28;;;6.10;99.90;;;;;;5097208;28;20060;-76
2022/11/06 00:18:51;;;;;;;11.57;7.40;;;6.10;99.90;;;;;;5099145;28;20039;-74
2022/11/06 00:21:27;;;;;;;14.35;8.43;;;6.00;99.90;;;;;;5101067;28;20054;-73
2022/11/06 00:23:55;;;;;;;12.07;8.35;;;6.00;99.90;;;;;;5100629;28;20024;-74
2022/11/06 00:26:23;;;;;;;20.52;8.75;;;5.90;99.90;;;;;;5103327;28;20112;-74
2022/11/06 00:28:49;;;;;;;13.50;7.90;;;5.90;99.90;;;;;;5101222;28;20053;-77
2022/11/06 00:31:20;;;;;;;14.07;6.95;;;5.90;99.90;;;;;;5099169;28;20030;-74
2022/11/06 00:33:47;;;;;;;16.13;8.63;;;5.90;99.90;;;;;;5095180;28;20039;-73
2022/11/06 00:36:18;;;;;;;16.80;8.30;;;5.80;99.90;;;;;;5096629;28;20020;-70
2022/11/06 00:38:44;;;;;;;11.32;7.70;;;5.80;99.90;;;;;;5094456;28;20089;-70
2022/11/06 00:41:19;;;;;;;13.60;8.82;;;5.80;99.90;;;;;;5092823;28;20032;-70
2022/11/06 00:43:49;;;;;;;13.52;8.95;;;5.80;99.90;;;;;;5094279;28;20028;-71
2022/11/06 00:46:16;;;;;;;11.77;8.27;;;5.80;99.90;;;;;;5096047;28;20070;-71
2022/11/06 00:48:41;;;;;;;13.02;8.25;;;5.80;99.90;;;;;;5096836;28;20074;-71
2022/11/06 00:51:19;;;;;;;13.25;9.35;;;5.80;99.90;;;;;;5098007;28;20460;-74
2022/11/06 00:53:45;;;;;;;13.40;8.52;;;5.80;99.90;;;;;;5096280;28;20103;-71
2022/11/06 00:56:18;;;;;;;14.55;9.60;;;5.70;99.90;;;;;;5095516;28;20503;-72
2022/11/06 00:58:45;;;;;;;13.38;8.63;;;5.70;99.90;;;;;;5095419;28;20127;-72
2022/11/06 01:01:12;;;;;;;16.00;8.88;;;5.70;99.90;;;;;;5094180;28;20455;-72
2022/11/06 01:03:39;;;;;;;14.38;9.52;;;5.70;99.90;;;;;;5095113;28;20035;-71
2022/11/06 01:06:11;;;;;;;13.90;8.52;;;5.60;99.90;;;;;;5099780;28;20137;-72
2022/11/06 01:08:37;;;;;;;16.77;9.35;;;5.60;99.90;;;;;;5101497;28;20415;-71
2022/11/06 01:11:24;;;;;;;15.73;9.40;;;5.60;99.90;;;;;;5100589;28;20095;-71
2022/11/06 01:13:52;;;;;;;17.15;9.80;;;5.50;99.90;;;;;;5098457;28;20028;-71
2022/11/06 01:16:18;;;;;;;17.70;10.55;;;5.50;99.90;;;;;;5098406;28;20024;-71
2022/11/06 01:18:45;;;;;;;16.77;10.73;;;5.50;99.90;;;;;;5098379;28;20023;-71
2022/11/06 01:21:14;;;;;;;17.33;10.57;;;5.50;99.90;;;;;;5096679;28;20132;-71
2022/11/06 01:23:41;;;;;;;15.30;9.85;;;5.40;99.90;;;;;;5098108;28;20363;-72
2022/11/06 01:26:08;;;;;;;24.20;11.15;;;5.40;99.90;;;;;;5097466;28;20028;-73
2022/11/06 01:28:34;;;;;;;17.25;10.85;;;5.40;99.90;;;;;;5102626;28;20020;-71
2022/11/06 01:31:04;;;;;;;17.00;11.38;;;5.40;99.90;;;;;;5100961;28;20093;-72
2022/11/06 01:33:30;;;;;;;19.65;10.77;;;5.40;99.90;;;;;;5099367;28;20028;-72
2022/11/06 01:35:56;;;;;;;20.27;11.30;;;5.40;99.90;;;;;;5100530;28;20032;-71
2022/11/06 01:38:21;;;;;;;21.17;12.40;;;5.40;99.90;;;;;;5100493;28;20228;-72
2022/11/06 01:40:47;;;;;;;17.02;11.20;;;5.40;99.90;;;;;;5099339;28;20456;-72
2022/11/06 01:43:17;;;;;;;19.00;10.98;;;5.40;99.90;;;;;;5098919;28;20477;-72
2022/11/06 01:45:46;;;;;;;18.70;11.00;;;5.40;99.90;;;;;;5100868;28;20028;-71
2022/11/06 01:48:13;;;;;;;32.42;13.68;;;5.40;99.90;;;;;;5100146;28;20066;-72
2022/11/06 01:50:42;;;;;;;21.25;11.82;;;5.40;99.90;;;;;;5099138;28;20077;-71
2022/11/06 01:53:07;;;;;;;;;;;5.40;99.90;;;;;;5099823;28;20028;-71
2022/11/06 01:55:41;;;;;;;19.35;12.57;;;5.40;99.90;;;;;;5100726;28;20370;-71
2022/11/06 01:58:09;;;;;;;25.05;13.77;;;5.40;99.90;;;;;;5100804;28;20058;-72
2022/11/06 02:00:35;;;;;;;22.75;13.40;;;5.30;99.90;;;;;;5100989;28;20075;-72
2022/11/06 02:03:01;;;;;;;21.45;13.38;;;5.30;99.90;;;;;;5100591;28;20063;-75
2022/11/06 02:05:27;;;;;;;23.30;14.43;;;5.30;99.90;;;;;;5099764;28;20080;-71
2022/11/06 02:07:55;;;;;;;23.40;13.55;;;5.20;99.90;;;;;;5098650;28;20028;-71
2022/11/06 02:10:20;;;;;;;23.08;13.73;;;5.20;99.90;;;;;;5098444;28;20028;-71
2022/11/06 02:12:52;;;;;;;19.63;13.27;;;5.30;99.90;;;;;;5097287;28;20029;-72
2022/11/06 02:15:51;;;;;;;28.52;14.50;;;5.20;99.90;;;;;;5099289;28;20414;-75
2022/11/06 02:18:41;;;;;;;25.77;15.52;;;5.20;99.90;;;;;;5100700;28;20024;-72
2022/11/06 02:21:35;;;;;;;24.77;14.30;;;5.20;99.90;;;;;;5099991;28;20051;-72
2022/11/06 02:24:27;;;;;;;22.98;14.00;;;5.10;99.90;;;;;;5100244;28;20032;-71
2022/11/06 02:27:03;;;;;;;24.65;14.80;;;5.10;99.90;;;;;;5098362;28;20025;-72
2022/11/06 02:29:37;;;;;;;23.30;14.27;;;5.10;99.90;;;;;;5102727;28;20103;-72
2022/11/06 02:32:12;;;;;;;25.10;15.25;;;5.10;99.90;;;;;;5101047;28;20027;-72
2022/11/06 02:34:40;;;;;;;24.67;14.02;;;5.00;99.90;;;;;;5102210;28;20024;-73
2022/11/06 02:37:19;;;;;;;24.48;14.68;;;5.00;99.90;;;;;;5101518;28;20054;-75
2022/11/06 02:39:47;;;;;;;24.48;15.60;;;4.90;99.90;;;;;;5102022;28;20066;-74
2022/11/06 02:42:17;;;;;;;30.77;15.87;;;4.90;99.90;;;;;;5102142;28;20071;-72
2022/11/06 02:44:44;;;;;;;25.35;15.45;;;4.90;99.90;;;;;;5097908;28;20752;-72
2022/11/06 02:47:13;;;;;;;28.63;17.00;;;4.90;99.90;;;;;;5098629;28;20028;-72
2022/11/06 02:49:47;;;;;;;32.08;17.15;;;5.00;99.90;;;;;;5099088;28;20024;-72
2022/11/06 02:52:28;;;;;;;32.83;17.98;;;5.00;99.90;;;;;;5098300;28;20194;-72
2022/11/06 02:55:16;;;;;;;27.00;15.95;;;5.00;99.90;;;;;;5098531;28;20119;-71
2022/11/06 02:57:51;;;;;;;29.37;16.67;;;5.00;99.90;;;;;;5097820;28;20028;-72
2022/11/06 03:00:17;;;;;;;26.85;15.98;;;5.00;99.90;;;;;;5096471;28;20760;-72
2022/11/06 03:02:43;;;;;;;31.75;16.92;;;4.90;99.90;;;;;;5096634;28;20028;-72
2022/11/06 03:05:14;;;;;;;32.08;16.60;;;5.00;99.90;;;;;;5097026;28;20426;-72
2022/11/06 03:07:53;;;;;;;29.40;16.17;;;4.90;99.90;;;;;;5099528;28;20102;-72
2022/11/06 03:10:19;;;;;;;29.25;16.92;;;4.90;99.90;;;;;;5099811;28;20020;-72
2022/11/06 03:13:19;;;;;;;25.90;15.80;;;4.90;99.90;;;;;;5098114;28;20032;-71
2022/11/06 03:16:04;;;;;;;30.27;16.13;;;4.90;99.90;;;;;;5090370;28;20042;-72
2022/11/06 03:18:42;;;;;;;28.90;17.77;;;4.90;99.90;;;;;;5097566;28;20027;-72
2022/11/06 03:21:29;;;;;;;29.50;16.15;;;4.90;99.90;;;;;;5096794;28;20048;-72
2022/11/06 03:24:02;;;;;;;27.30;17.05;;;4.90;99.90;;;;;;5098535;28;20039;-73
2022/11/06 03:26:43;;;;;;;32.08;18.60;;;4.90;99.90;;;;;;5098685;28;20118;-71
2022/11/06 03:29:32;;;;;;;30.08;17.25;;;5.00;99.90;;;;;;5100472;28;20035;-72
2022/11/06 03:32:26;;;;;;;30.25;17.52;;;4.90;99.90;;;;;;5100247;28;20430;-73
2022/11/06 03:34:59;;;;;;;24.85;16.77;;;4.90;99.90;;;;;;5100667;28;20035;-72
2022/11/06 03:37:32;;;;;;;29.25;17.35;;;4.80;99.90;;;;;;5099217;28;20028;-72
2022/11/06 03:40:05;;;;;;;29.33;16.40;;;4.90;99.90;;;;;;5099424;28;20020;-72
2022/11/06 03:42:31;;;;;;;31.48;18.20;;;4.80;99.90;;;;;;5099794;28;20062;-72
2022/11/06 03:45:05;;;;;;;31.90;17.80;;;4.80;99.90;;;;;;5098311;28;20422;-72
2022/11/06 03:47:39;;;;;;;31.20;18.02;;;4.80;99.90;;;;;;5098204;28;20095;-72
2022/11/06 03:50:25;;;;;;;37.08;19.67;;;4.80;99.90;;;;;;5098413;28;20028;-72
2022/11/06 03:52:57;;;;;;;33.53;18.23;;;4.80;99.90;;;;;;5098838;28;20050;-73
2022/11/06 03:55:31;;;;;;;30.90;18.15;;;4.80;99.90;;;;;;5101584;28;20119;-72
2022/11/06 03:58:03;;;;;;;34.08;19.35;;;4.80;99.90;;;;;;5100422;28;20073;-72
2022/11/06 04:00:32;;;;;;;37.72;19.42;;;4.80;99.90;;;;;;5101813;28;20020;-72
2022/11/06 04:03:03;;;;;;;;;;;4.80;99.90;;;;;;5100284;28;20467;-72
2022/11/06 04:05:35;;;;;;;33.63;19.13;;;4.80;99.90;;;;;;5098063;28;19908;-72
2022/11/06 04:16:21;;;;;;;33.53;18.70;;;4.80;99.90;;;;;;5097070;28;20035;-72
2022/11/06 04:18:46;;;;;;;34.88;19.80;;;4.70;99.90;;;;;;5097789;28;20427;-72
2022/11/06 04:21:41;;;;;;;34.90;19.60;;;4.70;99.90;;;;;;5095705;28;20055;-72
2022/11/06 04:27:20;;;;;;;38.75;20.83;;;4.60;99.90;;;;;;5096602;28;20086;-72
2022/11/06 04:30:18;;;;;;;41.28;21.58;;;4.70;99.90;;;;;;5095940;28;20024;-72
2022/11/06 04:32:50;;;;;;;45.92;22.38;;;4.70;99.90;;;;;;5082211;28;20036;-72
2022/11/06 04:35:40;;;;;;;45.63;23.45;;;4.70;99.90;;;;;;5093991;28;20030;-72
2022/11/06 04:38:06;;;;;;;44.70;22.30;;;4.70;99.90;;;;;;5095507;28;20024;-72
2022/11/06 04:40:50;;;;;;;44.42;23.30;;;4.80;99.90;;;;;;5097306;28;20042;-72
2022/11/06 04:43:33;;;;;;;42.38;22.33;;;4.80;99.90;;;;;;5097169;28;20032;-72
2022/11/06 04:46:01;;;;;;;45.42;23.33;;;4.70;99.90;;;;;;5100267;28;20032;-72
2022/11/06 04:48:27;;;;;;;45.40;24.73;;;4.80;99.90;;;;;;5099566;28;20096;-72
2022/11/06 04:50:58;;;;;;;48.92;25.30;;;4.80;99.90;;;;;;5098037;28;20294;-72
2022/11/06 04:53:25;;;;;;;56.83;26.27;;;4.80;99.90;;;;;;5099840;28;20028;-72
2022/11/06 04:55:53;;;;;;;53.10;25.63;;;4.80;99.90;;;;;;5099618;28;20020;-72
2022/11/06 04:58:19;;;;;;;45.58;24.10;;;4.80;99.90;;;;;;5098316;28;20024;-72
2022/11/06 05:00:48;;;;;;;49.42;25.25;;;4.80;99.90;;;;;;5099752;28;20036;-72
2022/11/06 05:03:15;;;;;;;53.30;24.65;;;4.80;99.90;;;;;;5099584;28;20032;-72
2022/11/06 05:05:41;;;;;;;50.83;26.25;;;4.80;99.90;;;;;;5099919;28;20506;-72
2022/11/06 05:08:15;;;;;;;49.90;25.42;;;4.80;99.90;;;;;;5098821;28;20032;-72
2022/11/06 05:10:42;;;;;;;48.88;24.77;;;4.80;99.90;;;;;;5098915;28;20069;-72
2022/11/06 05:13:08;;;;;;;51.30;25.17;;;4.80;99.90;;;;;;5099403;28;20028;-72
2022/11/06 05:15:34;;;;;;;47.38;24.05;;;4.80;99.90;;;;;;5098395;28;20024;-72
2022/11/06 05:17:59;;;;;;;45.53;23.00;;;4.70;99.90;;;;;;5097432;28;20375;-72
2022/11/06 05:20:25;;;;;;;40.67;22.83;;;4.70;99.90;;;;;;5098268;28;20077;-72
2022/11/06 05:22:56;;;;;;;42.88;22.35;;;4.60;99.90;;;;;;5099260;28;20028;-72
2022/11/06 05:25:32;;;;;;;42.97;21.48;;;4.60;99.90;;;;;;5099443;28;20453;-72
2022/11/06 05:27:59;;;;;;;45.88;23.48;;;4.50;99.90;;;;;;5097756;28;20506;-72
2022/11/06 05:30:25;;;;;;;40.08;21.67;;;4.50;99.90;;;;;;5098107;28;20406;-72
2022/11/06 05:32:51;;;;;;;43.05;21.20;;;4.50;99.90;;;;;;5097716;28;20039;-72
2022/11/06 05:35:18;;;;;;;47.30;23.00;;;4.50;99.90;;;;;;5099121;28;20028;-72
2022/11/06 05:37:44;;;;;;;44.35;21.48;;;4.40;99.90;;;;;;5098878;28;20063;-72
2022/11/06 05:40:10;;;;;;;44.05;22.67;;;4.40;99.90;;;;;;5099193;28;20101;-72
2022/11/06 05:42:39;;;;;;;43.58;23.70;;;4.30;99.90;;;;;;5099875;28;20111;-72
2022/11/06 05:45:06;;;;;;;40.65;20.90;;;4.30;99.90;;;;;;5099537;28;20031;-72
2022/11/06 05:47:33;;;;;;;43.42;23.85;;;4.30;99.90;;;;;;5097956;28;20055;-72
2022/11/06 05:49:59;;;;;;;41.45;22.52;;;4.30;99.90;;;;;;5097291;28;20028;-73
2022/11/06 05:52:25;;;;;;;41.30;21.90;;;4.20;99.90;;;;;;5098833;28;20028;-72
2022/11/06 05:54:50;;;;;;;43.30;22.42;;;4.20;99.90;;;;;;5096384;28;20451;-72
2022/11/06 05:57:16;;;;;;;48.00;23.77;;;4.10;99.90;;;;;;5098058;28;20058;-72
2022/11/06 05:59:42;;;;;;;41.45;23.02;;;4.10;99.90;;;;;;5097053;28;20051;-72
2022/11/06 06:02:09;;;;;;;44.05;22.05;;;4.00;99.90;;;;;;5095955;28;20451;-72
2022/11/06 06:04:35;;;;;;;46.55;23.48;;;4.00;99.90;;;;;;5097167;28;20051;-72
2022/11/06 06:07:00;;;;;;;47.22;24.52;;;4.00;99.90;;;;;;5097337;28;20376;-72
2022/11/06 06:09:26;;;;;;;45.70;23.08;;;4.00;99.90;;;;;;5097035;28;20028;-72
2022/11/06 06:11:53;;;;;;;49.97;24.88;;;4.10;99.90;;;;;;5095893;28;20035;-72
2022/11/06 06:14:19;;;;;;;51.65;25.17;;;4.10;99.90;;;;;;5095941;28;20116;-72
2022/11/06 06:16:45;;;;;;;47.40;24.58;;;4.10;99.90;;;;;;5096940;28;20020;-72
2022/11/06 06:19:11;;;;;;;50.75;24.45;;;4.20;99.90;;;;;;5095965;28;20024;-72
2022/11/06 06:21:37;;;;;;;56.28;27.60;;;4.20;99.90;;;;;;5096992;28;20479;-76
2022/11/06 06:24:04;;;;;;;54.13;26.92;;;4.30;99.90;;;;;;5097142;28;20054;-78
2022/11/06 06:26:30;;;;;;;54.47;26.08;;;4.30;99.90;;;;;;5097406;28;20054;-75
2022/11/06 06:28:56;;;;;;;65.57;27.88;;;4.40;99.90;;;;;;5096276;28;20052;-75
2022/11/06 06:31:22;;;;;;;53.35;25.80;;;4.40;99.90;;;;;;5097526;28;20024;-75
2022/11/06 06:33:48;;;;;;;59.90;27.10;;;4.50;99.90;;;;;;5097967;28;20035;-76
2022/11/06 06:36:14;;;;;;;57.13;26.85;;;4.50;99.90;;;;;;5098261;28;20032;-75
2022/11/06 06:38:40;;;;;;;55.15;26.63;;;4.60;99.90;;;;;;5097810;28;20024;-75
2022/11/06 06:41:07;;;;;;;56.05;26.38;;;4.70;99.90;;;;;;5097417;28;20024;-77
2022/11/06 06:43:33;;;;;;;59.28;27.98;;;4.80;99.90;;;;;;5098985;28;20475;-76
2022/11/06 06:46:04;;;;;;;59.58;26.77;;;4.90;99.90;;;;;;5097618;28;20028;-77
2022/11/06 06:48:30;;;;;;;57.28;25.83;;;4.90;99.90;;;;;;5098901;28;20021;-76
2022/11/06 06:50:59;;;;;;;61.95;27.50;;;5.10;99.90;;;;;;5098224;28;20024;-76
2022/11/06 06:53:25;;;;;;;59.15;27.15;;;5.40;99.90;;;;;;5096454;28;20028;-76
2022/11/06 06:55:51;;;;;;;56.50;26.45;;;5.60;99.90;;;;;;5098271;28;20024;-76
2022/11/06 06:58:17;;;;;;;56.80;27.02;;;5.90;99.90;;;;;;5099599;28;20032;-76
2022/11/06 07:00:43;;;;;;;48.03;25.85;;;6.10;99.90;;;;;;5098666;28;20478;-78
2022/11/06 07:03:08;;;;;;;45.42;24.85;;;6.40;99.90;;;;;;5098004;28;20436;-75
2022/11/06 07:05:35;;;;;;;41.08;24.17;;;6.70;99.90;;;;;;5096999;28;20049;-76
2022/11/06 07:08:01;;;;;;;42.45;23.55;;;6.90;99.90;;;;;;5097570;28;20082;-75
2022/11/06 07:10:26;;;;;;;41.70;23.55;;;7.00;99.90;;;;;;5097677;28;20028;-76
2022/11/06 07:12:52;;;;;;;38.50;22.23;;;7.20;99.90;;;;;;5096077;28;20028;-75
2022/11/06 07:15:18;;;;;;;32.97;20.60;;;7.40;99.90;;;;;;5097530;28;20075;-75
2022/11/06 07:17:44;;;;;;;32.45;20.17;;;7.60;99.90;;;;;;5095562;28;20026;-75
2022/11/06 07:20:10;;;;;;;32.10;21.00;;;7.90;99.90;;;;;;5096780;28;20063;-77
2022/11/06 07:22:35;;;;;;;30.52;19.40;;;8.20;99.90;;;;;;5094534;28;20040;-76
2022/11/06 07:25:01;;;;;;;29.20;18.38;;;8.60;99.90;;;;;;5094217;28;20020;-77
2022/11/06 07:27:28;;;;;;;30.90;19.30;;;8.80;99.90;;;;;;5096569;28;20459;-77
2022/11/06 07:29:53;;;;;;;26.73;17.42;;;9.00;99.90;;;;;;5096364;28;20024;-78
2022/11/06 07:32:19;;;;;;;26.45;18.08;;;9.20;99.90;;;;;;5095198;28;20038;-75
2022/11/06 07:34:45;;;;;;;27.20;16.55;;;9.40;99.90;;;;;;5097597;28;20055;-75
2022/11/06 07:37:11;;;;;;;24.88;16.13;;;9.50;99.90;;;;;;5095710;28;20024;-75
2022/11/06 07:39:36;;;;;;;25.73;17.02;;;9.60;99.90;;;;;;5097045;28;20046;-75
2022/11/06 07:42:02;;;;;;;22.10;15.73;;;9.60;99.90;;;;;;5095327;28;20032;-74
2022/11/06 07:44:28;;;;;;;21.45;15.80;;;9.50;99.90;;;;;;5094534;28;20460;-75
2022/11/06 07:46:53;;;;;;;22.23;15.63;;;9.60;99.90;;;;;;5096546;28;20020;-74
2022/11/06 07:49:19;;;;;;;19.30;14.30;;;9.50;99.90;;;;;;5096178;28;20051;-75
2022/11/06 07:51:45;;;;;;;20.52;14.52;;;9.50;99.90;;;;;;5096204;28;20059;-74
2022/11/06 07:54:11;;;;;;;21.42;14.38;;;9.60;99.90;;;;;;5096156;28;20051;-74
2022/11/06 07:56:37;;;;;;;20.73;14.27;;;9.70;99.90;;;;;;5095516;28;20208;-73
2022/11/06 07:59:03;;;;;;;16.80;12.98;;;9.90;99.90;;;;;;5093686;28;20024;-60
2022/11/06 08:01:29;;;;;;;18.98;13.75;;;10.00;99.90;;;;;;5094519;28;20036;-60
2022/11/06 08:03:54;;;;;;;18.27;12.50;;;10.40;99.90;;;;;;5094413;28;20372;-60
2022/11/06 08:06:20;;;;;;;20.10;13.35;;;10.70;99.90;;;;;;5094221;28;20069;-60
2022/11/06 08:08:46;;;;;;;19.35;12.98;;;11.00;99.90;;;;;;5094417;28;20035;-74
2022/11/06 08:11:13;;;;;;;18.27;13.20;;;11.10;99.90;;;;;;5097350;28;20087;-79
2022/11/06 08:13:39;;;;;;;18.48;13.10;;;11.20;99.90;;;;;;5098358;28;20030;-78
2022/11/06 08:16:10;;;;;;;18.75;12.75;;;11.20;99.90;;;;;;5098429;28;20063;-77
2022/11/06 08:18:37;;;;;;;18.23;12.85;;;11.30;99.90;;;;;;5095314;28;20036;-73
2022/11/06 08:21:03;;;;;;;16.58;11.82;;;11.50;99.90;;;;;;5096281;28;20081;-74
2022/11/06 08:23:30;;;;;;;17.50;11.80;;;11.70;99.90;;;;;;5094141;28;20098;-74
2022/11/06 08:25:58;;;;;;;18.63;12.23;;;11.70;99.90;;;;;;5096134;28;20024;-74
2022/11/06 08:28:25;;;;;;;17.83;12.48;;;11.70;99.90;;;;;;5095626;28;20039;-74
2022/11/06 08:30:51;;;;;;;16.67;11.10;;;11.80;99.90;;;;;;5094937;28;20024;-74
2022/11/06 08:33:17;;;;;;;15.85;11.05;;;12.00;99.90;;;;;;5093937;28;20035;-74
2022/11/06 08:35:42;;;;;;;15.02;11.07;;;12.20;99.90;;;;;;5093472;28;20517;-73
2022/11/06 08:38:08;;;;;;;12.43;10.13;;;12.30;99.90;;;;;;5093209;28;20455;-73
2022/11/06 08:40:36;;;;;;;12.40;9.70;;;12.50;99.90;;;;;;5092249;28;20082;-62
2022/11/06 08:43:05;;;;;;;14.10;10.05;;;12.70;99.90;;;;;;5092425;28;20115;-74
2022/11/06 08:45:31;;;;;;;14.38;10.10;;;13.10;99.90;;;;;;5093772;28;20016;-73
2022/11/06 08:48:03;;;;;;;12.82;8.50;;;13.20;99.90;;;;;;5093706;28;20028;-73
2022/11/06 08:50:30;;;;;;;13.07;8.73;;;13.60;99.90;;;;;;5092473;28;20028;-73
2022/11/06 08:52:57;;;;;;;11.35;8.32;;;14.00;99.90;;;;;;5092391;28;20028;-73
2022/11/06 08:55:23;;;;;;;14.30;7.97;;;14.20;99.90;;;;;;5093646;28;20029;-74
2022/11/06 08:57:49;;;;;;;9.82;6.45;;;14.40;99.90;;;;;;5092789;28;20020;-75
2022/11/06 09:00:15;;;;;;;8.77;6.90;;;14.60;99.90;;;;;;5093863;28;20514;-73
2022/11/06 09:02:41;;;;;;;8.98;6.20;;;14.90;99.90;;;;;;5092259;28;20043;-75
2022/11/06 09:05:07;;;;;;;7.78;6.15;;;15.50;99.90;;;;;;5093599;28;20455;-73
2022/11/06 09:07:33;;;;;;;8.02;5.93;;;15.70;98.80;;;;;;5093674;28;20043;-73
2022/11/06 09:09:58;;;;;;;7.25;5.70;;;15.80;98.20;;;;;;5093823;28;20028;-76
2022/11/06 09:12:24;;;;;;;11.10;6.00;;;15.70;97.20;;;;;;5092270;28;20028;-60
2022/11/06 09:14:50;;;;;;;9.70;6.70;;;15.70;97.30;;;;;;5093236;28;20052;-59
2022/11/06 09:17:17;;;;;;;7.55;4.97;;;15.80;97.50;;;;;;5093296;28;20028;-59
2022/11/06 09:19:43;;;;;;;9.05;5.97;;;16.60;95.50;;;;;;5093429;28;20029;-60
2022/11/06 09:22:09;;;;;;;7.80;5.13;;;16.50;94.20;;;;;;5092084;28;20055;-60
2022/11/06 09:24:35;;;;;;;7.18;5.20;;;16.40;94.50;;;;;;5093262;28;20050;-61
2022/11/06 09:27:00;;;;;;;7.13;3.95;;;16.40;93.60;;;;;;5097591;28;20103;-61
2022/11/06 09:29:26;;;;;;;7.70;3.30;;;16.30;92.90;;;;;;5095827;28;20039;-60
2022/11/06 09:31:53;;;;;;;7.93;4.00;;;16.20;92.00;;;;;;5096808;28;20107;-61
2022/11/06 09:34:18;;;;;;;6.10;3.58;;;16.20;92.10;;;;;;5097019;28;20027;-60
2022/11/06 09:36:44;;;;;;;4.25;2.83;;;15.80;92.00;;;;;;5096671;28;20028;-60
2022/11/06 09:39:10;;;;;;;6.82;3.50;;;15.70;92.00;;;;;;5096423;28;20092;-60
2022/11/06 09:41:48;;;;;;;5.90;3.13;;;15.80;91.70;;;;;;5096440;28;20043;-60
2022/11/06 09:44:37;;;;;;;6.10;3.00;;;15.90;91.70;;;;;;5095715;28;20463;-60
2022/11/06 09:47:15;;;;;;;6.53;3.40;;;15.80;91.10;;;;;;5096654;28;20040;-60
2022/11/06 09:49:46;;;;;;;3.78;2.25;;;15.70;91.30;;;;;;5096792;28;20028;-60
2022/11/06 09:52:33;;;;;;;7.40;2.20;;;15.70;90.20;;;;;;5096731;28;20036;-60
2022/11/06 09:55:22;;;;;;;6.15;2.78;;;15.90;90.30;;;;;;5096691;28;20024;-60
2022/11/06 09:57:55;;;;;;;;;;;15.90;89.90;;;;;;5097270;28;20024;-60
2022/11/06 10:00:22;;;;;;;4.22;2.97;;;15.90;89.50;;;;;;5096655;28;19904;-60
2022/11/06 10:02:51;;;;;;;6.30;2.85;;;16.00;88.50;;;;;;5096060;28;20375;-60
2022/11/06 10:05:35;;;;;;;5.32;2.50;;;16.00;89.00;;;;;;5096111;28;20169;-60
2022/11/06 10:08:04;;;;;;;6.20;2.80;;;15.60;89.60;;;;;;5094926;28;20494;-60
2022/11/06 10:10:42;;;;;;;7.05;3.05;;;15.30;90.10;;;;;;5096331;28;20035;-60
2022/11/06 10:13:45;;;;;;;4.35;2.90;;;14.90;91.00;;;;;;5096434;28;20032;-60
2022/11/06 10:16:34;;;;;;;7.10;3.15;;;14.80;91.30;;;;;;5096165;28;20035;-75
2022/11/06 10:19:12;;;;;;;4.47;2.90;;;14.60;91.30;;;;;;5094796;28;20024;-75
2022/11/06 10:21:45;;;;;;;15.23;4.85;;;14.90;91.70;;;;;;5096326;28;20051;-75
2022/11/06 10:24:37;;;;;;;5.93;2.90;;;14.90;91.40;;;;;;5096161;28;20020;-75
2022/11/06 10:27:08;;;;;;;7.40;2.90;;;15.40;90.20;;;;;;5095197;28;20024;-75
2022/11/06 10:29:56;;;;;;;12.63;3.78;;;16.10;89.90;;;;;;5094667;28;20024;-75
2022/11/06 10:32:40;;;;;;;6.47;3.10;;;16.70;85.10;;;;;;5095980;28;20028;-75
2022/11/06 10:35:17;;;;;;;5.55;3.17;;;16.90;82.30;;;;;;5095793;28;20024;-75
2022/11/06 10:38:07;;;;;;;6.03;2.80;;;16.90;82.00;;;;;;5095934;28;20031;-75
2022/11/06 10:40:34;;;;;;;7.88;3.63;;;16.70;82.00;;;;;;5095760;28;20028;-75
2022/11/06 10:43:23;;;;;;;4.95;2.53;;;17.20;82.20;;;;;;5095670;28;20136;-75
2022/11/06 10:45:55;;;;;;;9.13;3.03;;;17.60;79.50;;;;;;5095746;28;20069;-75
2022/11/06 10:48:26;;;;;;;5.18;3.03;;;17.70;77.40;;;;;;5094230;28;20032;-75
2022/11/06 10:51:04;;;;;;;6.15;2.85;;;17.70;76.40;;;;;;5095893;28;20101;-76
2022/11/06 10:53:55;;;;;;;8.13;2.60;;;17.70;75.90;;;;;;5095232;28;20042;-75
2022/11/06 10:56:35;;;;;;;10.32;3.40;;;17.00;76.80;;;;;;5095486;28;20035;-75
2022/11/06 10:59:00;;;;;;;;;;;17.30;76.40;;;;;;5095441;28;20016;-76
2022/11/06 11:01:26;;;;;;;7.65;3.28;;;18.00;76.00;;;;;;5095306;28;19904;-75
2022/11/06 11:03:52;;;;;;;7.18;4.10;;;18.00;74.50;;;;;;5094037;28;20115;-76
2022/11/06 11:06:17;;;;;;;5.97;3.70;;;17.70;74.90;;;;;;5093953;28;20024;-76
2022/11/06 11:08:45;;;;;;;8.75;3.60;;;17.50;74.50;;;;;;5095458;28;20539;-78
2022/11/06 11:11:14;;;;;;;10.68;3.72;;;17.70;74.90;;;;;;5095511;28;20024;-75
2022/11/06 11:13:42;;;;;;;8.98;3.97;;;18.20;74.20;;;;;;5094943;28;20454;-75
2022/11/06 11:16:17;;;;;;;8.93;4.10;;;18.20;73.10;;;;;;5095122;28;20417;-76
2022/11/06 11:18:45;;;;;;;9.35;3.90;;;18.60;72.50;;;;;;5093815;28;20077;-75
2022/11/06 11:21:26;;;;;;;10.30;4.60;;;19.10;70.90;;;;;;5094843;28;20048;-76
2022/11/06 11:24:09;;;;;;;6.75;3.42;;;19.10;69.10;;;;;;5093883;28;20028;-76
2022/11/06 11:27:07;;;;;;;7.65;3.33;;;19.40;68.30;;;;;;5093840;28;20384;-76
2022/11/06 11:29:40;;;;;;;7.35;3.92;;;19.50;66.90;;;;;;5082532;28;20136;-76
2022/11/06 11:32:06;;;;;;;9.75;3.80;;;19.40;67.00;;;;;;5094637;28;20032;-78
2022/11/06 11:34:35;;;;;;;7.18;3.38;;;19.20;67.50;;;;;;5094790;28;20073;-77
2022/11/06 11:37:05;;;;;;;9.82;3.15;;;18.70;67.00;;;;;;5093748;28;20028;-76
2022/11/06 11:39:32;;;;;;;;;;;18.90;67.60;;;;;;5095176;28;20054;-76
2022/11/06 11:42:31;;;;;;;8.85;3.47;;;19.20;66.20;;;;;;5093264;28;19994;-76
2022/11/06 11:45:08;;;;;;;3.33;2.78;;;19.30;64.90;;;;;;5092979;28;20122;-75
2022/11/06 11:47:36;;;;;;;5.97;3.70;;;19.10;64.40;;;;;;5092769;28;20050;-76
2022/11/06 11:50:20;;;;;;;6.35;3.40;;;18.90;65.10;;;;;;5094226;28;20444;-76
2022/11/06 11:52:50;;;;;;;6.47;3.08;;;19.10;64.40;;;;;;5092826;28;20032;-77
2022/11/06 11:55:19;;;;;;;9.00;3.83;;;18.90;63.50;;;;;;5093137;28;20024;-76
2022/11/06 11:57:48;;;;;;;9.18;2.58;;;19.50;63.40;;;;;;5093626;28;20024;-79
2022/11/06 12:00:17;;;;;;;6.65;2.33;;;20.00;60.10;;;;;;5093517;28;20056;-80
2022/11/06 12:02:48;;;;;;;5.43;2.17;;;20.60;58.80;;;;;;5093930;28;20545;-80
2022/11/06 12:05:35;;;;;;;4.03;2.45;;;20.90;57.40;;;;;;5093782;28;20085;-80
2022/11/06 12:08:02;;;;;;;5.55;2.20;;;21.20;56.10;;;;;;5093937;28;20036;-80
2022/11/06 12:10:28;;;;;;;4.47;2.50;;;21.10;56.50;;;;;;5094678;28;20051;-82
2022/11/06 12:12:56;;;;;;;5.60;2.08;;;20.30;56.70;;;;;;5095509;28;20024;-80
2022/11/06 12:15:27;;;;;;;4.05;1.65;;;21.00;56.10;;;;;;5094815;28;20035;-81
2022/11/06 12:18:08;;;;;;;5.18;2.03;;;21.30;55.40;;;;;;5093447;28;20073;-80
2022/11/06 12:20:56;;;;;;;7.28;2.47;;;21.90;54.30;;;;;;5092713;28;20027;-81
2022/11/06 12:23:46;;;;;;;3.45;1.80;;;22.10;53.00;;;;;;5093919;28;20024;-81
2022/11/06 12:26:34;;;;;;;7.05;2.20;;;21.50;52.30;;;;;;5094000;28;20032;-79
2022/11/06 12:29:13;;;;;;;9.52;2.67;;;20.50;54.80;;;;;;5094443;28;20020;-80
2022/11/06 12:31:45;;;;;;;;;;;20.30;55.50;;;;;;5094933;28;20024;-81
2022/11/06 12:34:29;;;;;;;5.15;1.73;;;20.10;54.70;;;;;;5092858;28;19911;-79
2022/11/06 12:37:13;;;;;;;5.57;1.90;;;20.60;54.10;;;;;;5075964;28;20536;-79
2022/11/06 12:39:42;;;;;;;6.75;1.80;;;20.90;53.10;;;;;;5093022;28;20402;-79
2022/11/06 12:42:11;;;;;;;6.65;1.48;;;20.50;53.80;;;;;;5092724;28;20467;-80
2022/11/06 12:44:37;;;;;;;3.53;1.50;;;20.30;53.60;;;;;;5092469;28;20028;-79
2022/11/06 12:47:34;;;;;;;3.60;1.30;;;20.10;53.60;;;;;;5092467;28;20036;-79
2022/11/06 12:50:09;;;;;;;4.55;1.98;;;20.30;53.60;;;;;;5092728;28;20357;-79
2022/11/06 12:52:52;;;;;;;5.93;2.00;;;19.70;55.00;;;;;;5092461;28;20024;-78
2022/11/06 12:55:27;;;;;;;6.95;1.60;;;19.70;55.40;;;;;;5093032;28;20410;-79
2022/11/06 12:58:17;;;;;;;3.58;1.80;;;19.40;55.70;;;;;;5093477;28;20082;-79
2022/11/06 13:01:00;;;;;;;4.43;1.40;;;19.20;55.70;;;;;;5098228;28;20021;-79
2022/11/06 13:04:11;;;;;;;3.70;1.45;;;19.30;55.60;;;;;;5097900;28;20028;-80
2022/11/06 13:07:02;;;;;;;4.15;1.02;;;19.50;54.00;;;;;;5098084;28;20032;-79
2022/11/06 13:09:40;;;;;;;1.77;0.90;;;19.40;51.90;;;;;;5097552;28;20070;-77
2022/11/06 13:12:22;;;;;;;7.75;1.48;;;19.90;51.90;;;;;;5097363;28;20028;-78
2022/11/06 13:14:52;;;;;;;3.00;1.02;;;20.30;51.80;;;;;;5096229;28;20360;-79
2022/11/06 13:17:41;;;;;;;3.88;1.45;;;20.10;52.40;;;;;;5096392;28;20111;-80
2022/11/06 13:20:44;;;;;;;2.72;1.27;;;19.90;51.80;;;;;;5097266;28;20388;-81